Swink, Oklahoma
Current Conditions -  °F | °C
As of 4:15 AM on Tuesday 27 Jan 2015 (Local Time) from KHHW Reporting Station
Clear Clear  
Wind Chill: 46°   Ceiling: Unl
Heat Index: 46°   Visibility: 10mi
Dew Point: 37°   Wind: 3mph
Humidity: 73%   Direction: 350°N
Pressure: 30.06"   Gusts: NA
Location:  34.02°N, 95.2°W
Report Text: KHHW 271015Z AUTO 35003KT 10SM CLR 08/03 A3006 RMK AO2 T00750030
Loading
Personal Weather Stations






























Interactive Weather Map New forecast layout! Learn more

10-Day Weather Forecast

Advertisements
Track Severe Weather on mobile